CaraVOS Liberty — V7AH7 — position and weather

sailwx.info

Track history (hours):
 
Tides and Currents Weather Stations Pressure Air Temp Water Temp Dewpoint Dewpoint Depression Visibility Wind Speed Wind Dir Waves Ship Positions

CaraVOS Liberty

Last reported at 2017-Aug-22 07:07 UTC. Time now 2017-Sep-22 20:52 UTC.
Position N 37°29' E 025°56'.
Warning: this ship's position is 31 days out of date.

Length 200 m; draft 6.7 m.

Type: Cargo ship. MMSI: 538004998.

Date/timePositionNaut miles runAvg speedWind from/ knotsBaromVisibWave heightAir tempDewpointWater temp
2017-Aug-22 07:07N 37°29' E 025°56'112.6
2017-Aug-22 07:00N 37°31' E 025°55'613.0
2017-Aug-22 06:30N 37°37' E 025°52'612.6
2017-Aug-22 06:00N 37°42' E 025°49'11412.8
2017-Aug-21 21:07N 39°27' E 024°52'112.0
2017-Aug-21 21:00N 39°28' E 024°51'612.4
2017-Aug-21 20:30N 39°34' E 024°52'612.0
2017-Aug-21 20:00N 39°40' E 024°53'611.7
2017-Aug-21 19:30N 39°46' E 024°54'712.3
2017-Aug-21 18:57N 39°53' E 024°56'612.9
2017-Aug-21 18:30N 39°58' E 024°58'612.2
2017-Aug-21 18:00N 40°03' E 025°02'612.4
2017-Aug-21 17:30N 40°05' E 025°10'3 6.2
2017-Aug-21 16:57N 40°05' E 025°14'0 0.4
2017-Aug-21 16:27N 40°06' E 025°14'0 0.4
2017-Aug-21 15:30N 40°06' E 025°14'3 0.5
2017-Aug-21 09:12N 40°06' E 025°19'3 1.0
2017-Aug-21 06:17N 40°08' E 025°21'3 9.4
2017-Aug-21 06:00N 40°11' E 025°20'5 9.1
2017-Aug-21 05:27N 40°15' E 025°16'0 0.6
2017-Aug-21 04:59N 40°15' E 025°17'1 1.0
2017-Aug-21 04:28N 40°15' E 025°17'1 1.1
2017-Aug-21 03:58N 40°15' E 025°18'1 1.1
2017-Aug-21 03:29N 40°15' E 025°19'1 1.2
2017-Aug-21 02:58N 40°15' E 025°20'1 1.1
2017-Aug-21 02:28N 40°14' E 025°20'0 1.0
2017-Aug-21 01:59N 40°14' E 025°21'0 0.9
2017-Aug-21 01:28N 40°14' E 025°21'1 0.9
2017-Aug-21 00:52N 40°13' E 025°22'1 1.8
2017-Aug-21 00:31N 40°13' E 025°22'4 7.9
2017-Aug-21 00:00N 40°09' E 025°25'1 1.9
2017-Aug-20 23:30N 40°10' E 025°26'2 1.1
2017-Aug-20 21:21N 40°12' E 025°27'0 1.2
2017-Aug-20 20:57N 40°12' E 025°26'1 1.3
2017-Aug-20 20:06N 40°13' E 025°26'0 1.1
2017-Aug-20 19:54N 40°14' E 025°26'0 1.0
2017-Aug-20 19:30N 40°14' E 025°26'0 0.9
2017-Aug-20 19:00N 40°14' E 025°25'0 0.9
2017-Aug-20 18:30N 40°15' E 025°25'1 0.8
2017-Aug-20 17:48N 40°15' E 025°24'0 0.7
2017-Aug-20 17:30N 40°15' E 025°24'0 0.7
2017-Aug-20 16:57N 40°15' E 025°23'0 0.9
2017-Aug-20 16:30N 40°15' E 025°23'1 0.9
2017-Aug-20 15:30N 40°15' E 025°22'0 0.8
2017-Aug-20 15:00N 40°15' E 025°21'0 0.7
2017-Aug-20 14:24N 40°14' E 025°21'1 0.5
2017-Aug-20 12:36N 40°14' E 025°20'0 0.7
2017-Aug-20 12:30N 40°13' E 025°20'1 1.0
2017-Aug-20 11:30N 40°13' E 025°21'1 1.3
2017-Aug-20 10:57N 40°12' E 025°22'1 1.4
2017-Aug-20 10:18N 40°12' E 025°23'0 1.6
2017-Aug-20 10:00N 40°12' E 025°23'2 1.9
2017-Aug-20 09:10N 40°11' E 025°25'0 3.1
2017-Aug-20 09:00N 40°11' E 025°26'3 6.3
2017-Aug-20 08:30N 40°11' E 025°30'611.9
2017-Aug-20 08:00N 40°13' E 025°38'713.4
2017-Aug-20 07:29N 40°18' E 025°43'913.5
2017-Aug-20 06:52N 40°25' E 025°50'512.9
2017-Aug-20 06:30N 40°29' E 025°52'613.0
2017-Aug-20 06:00N 40°36' E 025°49'5 8.5
2017-Aug-20 05:29N 40°40' E 025°47'0 0.2
2017-Aug-20 04:59N 40°40' E 025°47'0 0.0
2017-Aug-20 04:29N 40°40' E 025°47'0 0.0
2017-Aug-20 03:59N 40°40' E 025°47'0 0.0
2017-Aug-20 03:08N 40°40' E 025°47'0 0.0
2017-Aug-20 02:02N 40°40' E 025°47'0 0.0
2017-Aug-20 01:44N 40°40' E 025°47'0 0.0
2017-Aug-20 01:26N 40°40' E 025°47'0 0.0
2017-Aug-20 00:56N 40°40' E 025°47'0 0.0
2017-Aug-20 00:29N 40°40' E 025°47'0 0.0
2017-Aug-19 23:26N 40°40' E 025°47'0 0.0
2017-Aug-19 22:41N 40°40' E 025°47'0 0.0
2017-Aug-19 22:26N 40°40' E 025°47'0 0.0
2017-Aug-19 21:56N 40°40' E 025°47'0 0.0
2017-Aug-19 16:53N 40°40' E 025°47'0 0.0
2017-Aug-19 07:32N 40°40' E 025°47'0 0.0
2017-Aug-19 07:26N 40°40' E 025°47'0 0.0
2017-Aug-19 06:47N 40°40' E 025°47'0 0.0
2017-Aug-19 04:50N 40°40' E 025°47'0 0.0
2017-Aug-19 04:23N 40°40' E 025°47'0 0.1
2017-Aug-19 03:56N 40°40' E 025°47'0 0.0
2017-Aug-19 03:08N 40°40' E 025°47'0 0.1
2017-Aug-19 02:56N 40°40' E 025°47'0 0.0
2017-Aug-19 02:20N 40°40' E 025°47'0 0.0
2017-Aug-19 01:56N 40°40' E 025°47'0 0.0
2017-Aug-19 01:14N 40°40' E 025°47'0 0.0
2017-Aug-19 00:56N 40°40' E 025°47'0 0.0
2017-Aug-19 00:26N 40°40' E 025°47'0 0.0
2017-Aug-18 17:23N 40°40' E 025°47'  
2017-Aug-15 19:55N 40°40' E 025°47'0 0.0
2017-Aug-15 19:28N 40°40' E 025°47'0 0.0
2017-Aug-15 18:58N 40°40' E 025°47'0 0.0
2017-Aug-15 18:28N 40°40' E 025°47'0 0.0
2017-Aug-15 17:58N 40°40' E 025°47'0 0.0
2017-Aug-15 17:28N 40°40' E 025°47'0 0.0
2017-Aug-15 16:58N 40°40' E 025°47'0 0.0
2017-Aug-15 16:28N 40°40' E 025°47'0 0.0
2017-Aug-15 15:58N 40°40' E 025°47'0 0.0
2017-Aug-15 15:10N 40°40' E 025°47'172 6.2
2017-Aug-14 11:43N 37°48' E 025°45'210.4
2017-Aug-14 11:31N 37°46' E 025°44'510.1
2017-Aug-14 11:00N 37°41' E 025°45'710.3
2017-Aug-14 10:22N 37°35' E 025°48'410.5
2017-Aug-14 10:00N 37°31' E 025°50'510.4
2017-Aug-14 09:31N 37°27' E 025°52'19511.0
2017-Aug-13 15:43N 35°12' E 028°48'211.9
2017-Aug-13 15:30N 35°11' E 028°51'711.5
2017-Aug-13 14:54N 35°09' E 028°59'15212.1
2017-Aug-13 02:15N 34°20' E 031°54'412.3
2017-Aug-13 01:56N 34°19' E 031°59'812.2
2017-Aug-13 01:15N 34°16' E 032°08'312.2
2017-Aug-13 00:59N 34°15' E 032°12'612.1
2017-Aug-13 00:30N 34°14' E 032°19'812.1
2017-Aug-12 23:52N 34°11' E 032°28'412.0
2017-Aug-12 23:30N 34°10' E 032°33'612.0
2017-Aug-12 23:00N 34°09' E 032°40'3011.8
2017-Aug-12 20:27N 34°06' E 033°16'3711.9
2017-Aug-12 17:20N 34°02' E 034°01'411.8
2017-Aug-12 16:59N 34°02' E 034°06'712.0
2017-Aug-12 16:25N 34°01' E 034°14'512.3
2017-Aug-12 16:00N 34°00' E 034°20'612.5
2017-Aug-12 15:31N 33°60' E 034°27'1213.5
2017-Aug-12 14:37N 33°58' E 034°42'214.9
2017-Aug-12 14:30N 33°58' E 034°44'714.8
2017-Aug-12 14:00N 33°57' E 034°53'  
Track history (hours):
 
Tides and Currents Weather Stations Pressure Air Temp Water Temp Dewpoint Dewpoint Depression Visibility Wind Speed Wind Dir Waves Ship Positions

CaraVOS Liberty

Last reported at 2017-Aug-22 07:07 UTC. Time now 2017-Sep-22 20:52 UTC.
Position N 37°29' E 025°56'.
Warning: this ship's position is 31 days out of date.

Length 200 m; draft 6.7 m.

Type: Cargo ship. MMSI: 538004998.

Date/timePositionNaut miles runAvg speedWind from/ knotsBaromVisibWave heightAir tempDewpointWater temp
2017-Aug-22 07:07N 37°29' E 025°56'112.6
2017-Aug-22 07:00N 37°31' E 025°55'613.0
2017-Aug-22 06:30N 37°37' E 025°52'612.6
2017-Aug-22 06:00N 37°42' E 025°49'11412.8
2017-Aug-21 21:07N 39°27' E 024°52'112.0
2017-Aug-21 21:00N 39°28' E 024°51'612.4
2017-Aug-21 20:30N 39°34' E 024°52'612.0
2017-Aug-21 20:00N 39°40' E 024°53'611.7
2017-Aug-21 19:30N 39°46' E 024°54'712.3
2017-Aug-21 18:57N 39°53' E 024°56'612.9
2017-Aug-21 18:30N 39°58' E 024°58'612.2
2017-Aug-21 18:00N 40°03' E 025°02'612.4
2017-Aug-21 17:30N 40°05' E 025°10'3 6.2
2017-Aug-21 16:57N 40°05' E 025°14'0 0.4
2017-Aug-21 16:27N 40°06' E 025°14'0 0.4
2017-Aug-21 15:30N 40°06' E 025°14'3 0.5
2017-Aug-21 09:12N 40°06' E 025°19'3 1.0
2017-Aug-21 06:17N 40°08' E 025°21'3 9.4
2017-Aug-21 06:00N 40°11' E 025°20'5 9.1
2017-Aug-21 05:27N 40°15' E 025°16'0 0.6
2017-Aug-21 04:59N 40°15' E 025°17'1 1.0
2017-Aug-21 04:28N 40°15' E 025°17'1 1.1
2017-Aug-21 03:58N 40°15' E 025°18'1 1.1
2017-Aug-21 03:29N 40°15' E 025°19'1 1.2
2017-Aug-21 02:58N 40°15' E 025°20'1 1.1
2017-Aug-21 02:28N 40°14' E 025°20'0 1.0
2017-Aug-21 01:59N 40°14' E 025°21'0 0.9
2017-Aug-21 01:28N 40°14' E 025°21'1 0.9
2017-Aug-21 00:52N 40°13' E 025°22'1 1.8
2017-Aug-21 00:31N 40°13' E 025°22'4 7.9
2017-Aug-21 00:00N 40°09' E 025°25'1 1.9
2017-Aug-20 23:30N 40°10' E 025°26'2 1.1
2017-Aug-20 21:21N 40°12' E 025°27'0 1.2
2017-Aug-20 20:57N 40°12' E 025°26'1 1.3
2017-Aug-20 20:06N 40°13' E 025°26'0 1.1
2017-Aug-20 19:54N 40°14' E 025°26'0 1.0
2017-Aug-20 19:30N 40°14' E 025°26'0 0.9
2017-Aug-20 19:00N 40°14' E 025°25'0 0.9
2017-Aug-20 18:30N 40°15' E 025°25'1 0.8
2017-Aug-20 17:48N 40°15' E 025°24'0 0.7
2017-Aug-20 17:30N 40°15' E 025°24'0 0.7
2017-Aug-20 16:57N 40°15' E 025°23'0 0.9
2017-Aug-20 16:30N 40°15' E 025°23'1 0.9
2017-Aug-20 15:30N 40°15' E 025°22'0 0.8
2017-Aug-20 15:00N 40°15' E 025°21'0 0.7
2017-Aug-20 14:24N 40°14' E 025°21'1 0.5
2017-Aug-20 12:36N 40°14' E 025°20'0 0.7
2017-Aug-20 12:30N 40°13' E 025°20'1 1.0
2017-Aug-20 11:30N 40°13' E 025°21'1 1.3
2017-Aug-20 10:57N 40°12' E 025°22'1 1.4
2017-Aug-20 10:18N 40°12' E 025°23'0 1.6
2017-Aug-20 10:00N 40°12' E 025°23'2 1.9
2017-Aug-20 09:10N 40°11' E 025°25'0 3.1
2017-Aug-20 09:00N 40°11' E 025°26'3 6.3
2017-Aug-20 08:30N 40°11' E 025°30'611.9
2017-Aug-20 08:00N 40°13' E 025°38'713.4
2017-Aug-20 07:29N 40°18' E 025°43'913.5
2017-Aug-20 06:52N 40°25' E 025°50'512.9
2017-Aug-20 06:30N 40°29' E 025°52'613.0
2017-Aug-20 06:00N 40°36' E 025°49'5 8.5
2017-Aug-20 05:29N 40°40' E 025°47'0 0.2
2017-Aug-20 04:59N 40°40' E 025°47'0 0.0
2017-Aug-20 04:29N 40°40' E 025°47'0 0.0
2017-Aug-20 03:59N 40°40' E 025°47'0 0.0
2017-Aug-20 03:08N 40°40' E 025°47'0 0.0
2017-Aug-20 02:02N 40°40' E 025°47'0 0.0
2017-Aug-20 01:44N 40°40' E 025°47'0 0.0
2017-Aug-20 01:26N 40°40' E 025°47'0 0.0
2017-Aug-20 00:56N 40°40' E 025°47'0 0.0
2017-Aug-20 00:29N 40°40' E 025°47'0 0.0
2017-Aug-19 23:26N 40°40' E 025°47'0 0.0
2017-Aug-19 22:41N 40°40' E 025°47'0 0.0
2017-Aug-19 22:26N 40°40' E 025°47'0 0.0
2017-Aug-19 21:56N 40°40' E 025°47'0 0.0
2017-Aug-19 16:53N 40°40' E 025°47'0 0.0
2017-Aug-19 07:32N 40°40' E 025°47'0 0.0
2017-Aug-19 07:26N 40°40' E 025°47'0 0.0
2017-Aug-19 06:47N 40°40' E 025°47'0 0.0
2017-Aug-19 04:50N 40°40' E 025°47'0 0.0
2017-Aug-19 04:23N 40°40' E 025°47'0 0.1
2017-Aug-19 03:56N 40°40' E 025°47'0 0.0
2017-Aug-19 03:08N 40°40' E 025°47'0 0.1
2017-Aug-19 02:56N 40°40' E 025°47'0 0.0
2017-Aug-19 02:20N 40°40' E 025°47'0 0.0
2017-Aug-19 01:56N 40°40' E 025°47'0 0.0
2017-Aug-19 01:14N 40°40' E 025°47'0 0.0
2017-Aug-19 00:56N 40°40' E 025°47'0 0.0
2017-Aug-19 00:26N 40°40' E 025°47'0 0.0
2017-Aug-18 17:23N 40°40' E 025°47'  
2017-Aug-15 19:55N 40°40' E 025°47'0 0.0
2017-Aug-15 19:28N 40°40' E 025°47'0 0.0
2017-Aug-15 18:58N 40°40' E 025°47'0 0.0
2017-Aug-15 18:28N 40°40' E 025°47'0 0.0
2017-Aug-15 17:58N 40°40' E 025°47'0 0.0
2017-Aug-15 17:28N 40°40' E 025°47'0 0.0
2017-Aug-15 16:58N 40°40' E 025°47'0 0.0
2017-Aug-15 16:28N 40°40' E 025°47'0 0.0
2017-Aug-15 15:58N 40°40' E 025°47'0 0.0
2017-Aug-15 15:10N 40°40' E 025°47'172 6.2
2017-Aug-14 11:43N 37°48' E 025°45'210.4
2017-Aug-14 11:31N 37°46' E 025°44'510.1
2017-Aug-14 11:00N 37°41' E 025°45'710.3
2017-Aug-14 10:22N 37°35' E 025°48'410.5
2017-Aug-14 10:00N 37°31' E 025°50'510.4
2017-Aug-14 09:31N 37°27' E 025°52'19511.0
2017-Aug-13 15:43N 35°12' E 028°48'211.9
2017-Aug-13 15:30N 35°11' E 028°51'711.5
2017-Aug-13 14:54N 35°09' E 028°59'15212.1
2017-Aug-13 02:15N 34°20' E 031°54'412.3
2017-Aug-13 01:56N 34°19' E 031°59'812.2
2017-Aug-13 01:15N 34°16' E 032°08'312.2
2017-Aug-13 00:59N 34°15' E 032°12'612.1
2017-Aug-13 00:30N 34°14' E 032°19'812.1
2017-Aug-12 23:52N 34°11' E 032°28'412.0
2017-Aug-12 23:30N 34°10' E 032°33'612.0
2017-Aug-12 23:00N 34°09' E 032°40'3011.8
2017-Aug-12 20:27N 34°06' E 033°16'3711.9
2017-Aug-12 17:20N 34°02' E 034°01'411.8
2017-Aug-12 16:59N 34°02' E 034°06'712.0
2017-Aug-12 16:25N 34°01' E 034°14'512.3
2017-Aug-12 16:00N 34°00' E 034°20'612.5
2017-Aug-12 15:31N 33°60' E 034°27'1213.5
2017-Aug-12 14:37N 33°58' E 034°42'214.9
2017-Aug-12 14:30N 33°58' E 034°44'714.8
2017-Aug-12 14:00N 33°57' E 034°53'  

Dump ship's entire track history